Terminal Aerodrome Forecast
Issued by NWS

Current Version | Previous Version | Graphics & Text | Print | Product List | Glossary On
Versions: 1 2 3 4 5 6 7 8 9 10 11 12 13 14 15 16 17 18 19 20 21 22 23
000
FTUS41 KILN 191500 AAB
TAFLUK
TAF AMD
KLUK 191518Z 1915/2012 27003KT P6SM BKN028
     FM191800 24004KT P6SM BKN035
     FM200000 23004KT P6SM SCT250
     FM201000 20006KT P6SM BKN100=

USA.gov is the U.S. government's official web portal to all federal, state and local government web resources and services.